Time;durP1;ratioP1;P1;durP2;ratioP2;P2;SDS_P1;SDS_P2;PMS_P1;PMS_P2;Temp;Humidity;BMP_temperature;BMP_pressure;BME280_temperature;BME280_humidity;BME280_pressure;Samples;Min_cycle;Max_cycle;Signal;HPM_P1;HPM_P2
2023/09/23 00:01:39;;;;;;;4.70;1.95;;;15.90;99.90;;;;;;5089295;28;20056;-71
2023/09/23 00:04:05;;;;;;;7.07;1.75;;;15.90;99.90;;;;;;5093518;28;20020;-71
2023/09/23 00:06:31;;;;;;;6.28;1.63;;;15.90;99.90;;;;;;5091171;28;20751;-71
2023/09/23 00:08:57;;;;;;;6.90;1.90;;;15.90;99.90;;;;;;5091039;28;20035;-71
2023/09/23 00:11:22;;;;;;;4.05;1.42;;;15.90;99.90;;;;;;5092064;28;20473;-71
2023/09/23 00:13:48;;;;;;;3.65;1.48;;;15.90;99.90;;;;;;5093049;28;20481;-71
2023/09/23 00:16:16;;;;;;;5.53;1.63;;;15.80;99.90;;;;;;5093137;28;20124;-71
2023/09/23 00:18:45;;;;;;;4.80;1.67;;;15.80;99.90;;;;;;5092212;28;20085;-71
2023/09/23 00:21:12;;;;;;;4.53;1.35;;;15.80;99.90;;;;;;5093544;28;20051;-71
2023/09/23 00:23:39;;;;;;;3.28;1.45;;;15.70;99.90;;;;;;5094481;28;20430;-71
2023/09/23 00:26:06;;;;;;;2.75;1.02;;;15.80;99.90;;;;;;5095528;28;20362;-71
2023/09/23 00:28:32;;;;;;;4.00;1.50;;;15.90;99.90;;;;;;5095158;28;20561;-71
2023/09/23 00:31:12;;;;;;;3.60;1.58;;;15.90;99.90;;;;;;5093855;28;20052;-71
2023/09/23 00:33:38;;;;;;;4.60;1.85;;;15.90;99.90;;;;;;5093125;28;20039;-71
2023/09/23 00:36:08;;;;;;;7.03;1.52;;;15.90;99.90;;;;;;5093727;28;20501;-71
2023/09/23 00:38:35;;;;;;;4.18;1.27;;;15.80;99.90;;;;;;5094455;28;20389;-71
2023/09/23 00:41:03;;;;;;;3.10;1.10;;;15.70;99.90;;;;;;5094013;28;20050;-71
2023/09/23 00:43:32;;;;;;;3.20;1.35;;;15.60;99.90;;;;;;5098700;28;20030;-71
2023/09/23 00:45:59;;;;;;;2.58;1.17;;;15.60;99.90;;;;;;5090552;28;20028;-71
2023/09/23 00:48:25;;;;;;;3.25;1.40;;;15.60;99.90;;;;;;5097256;28;20095;-71
2023/09/23 00:50:52;;;;;;;4.05;1.13;;;15.70;99.90;;;;;;5094342;28;20397;-71
2023/09/23 00:53:20;;;;;;;3.97;1.50;;;15.60;99.90;;;;;;5092812;28;20032;-71
2023/09/23 00:55:52;;;;;;;5.72;1.33;;;15.60;99.90;;;;;;5091864;28;20035;-71
2023/09/23 00:58:21;;;;;;;3.95;0.98;;;15.50;99.90;;;;;;5098145;28;20019;-71
2023/09/23 01:00:49;;;;;;;5.13;1.20;;;15.40;99.90;;;;;;5091062;28;20062;-71
2023/09/23 01:03:15;;;;;;;1.48;0.75;;;15.30;99.90;;;;;;5097522;28;20058;-71
2023/09/23 01:05:42;;;;;;;4.45;1.20;;;15.30;99.90;;;;;;5093171;28;20032;-71
2023/09/23 01:08:18;;;;;;;6.25;1.23;;;15.40;99.90;;;;;;5092504;28;20028;-71
2023/09/23 01:10:45;;;;;;;3.05;1.15;;;15.30;99.90;;;;;;5093384;28;20024;-71
2023/09/23 01:13:11;;;;;;;1.77;0.80;;;15.40;99.90;;;;;;5090755;28;20020;-71
2023/09/23 01:15:40;;;;;;;2.50;1.05;;;15.20;99.90;;;;;;5090852;28;20103;-71
2023/09/23 01:18:09;;;;;;;3.72;0.85;;;15.30;99.90;;;;;;5097618;28;20076;-71
2023/09/23 01:20:36;;;;;;;3.45;0.73;;;15.30;99.90;;;;;;5094009;28;20039;-72
2023/09/23 01:23:04;;;;;;;3.28;0.75;;;15.30;99.90;;;;;;5100471;28;20032;-71
2023/09/23 01:25:30;;;;;;;3.08;1.10;;;15.30;99.90;;;;;;5090179;28;20024;-71
2023/09/23 01:27:55;;;;;;;1.85;0.68;;;15.30;99.90;;;;;;5089366;28;20039;-71
2023/09/23 01:30:21;;;;;;;2.20;0.90;;;15.30;99.90;;;;;;5096574;28;20039;-71
2023/09/23 01:32:52;;;;;;;3.05;0.73;;;15.50;99.90;;;;;;5089913;28;20394;-71
2023/09/23 01:35:20;;;;;;;3.35;1.48;;;15.50;99.90;;;;;;5094129;28;20769;-70
2023/09/23 01:37:47;;;;;;;4.07;0.63;;;15.20;99.90;;;;;;5090978;28;20478;-71
2023/09/23 01:40:17;;;;;;;2.83;1.35;;;15.20;99.90;;;;;;5090737;28;20502;-72
2023/09/23 01:42:44;;;;;;;1.95;0.70;;;15.30;99.90;;;;;;5091924;27;20028;-72
2023/09/23 01:45:10;;;;;;;3.08;0.90;;;15.30;99.90;;;;;;5091381;28;20027;-72
2023/09/23 01:47:37;;;;;;;2.28;0.70;;;15.30;99.90;;;;;;5091877;28;20028;-72
2023/09/23 01:50:03;;;;;;;2.75;0.90;;;15.20;99.90;;;;;;5091392;28;20435;-72
2023/09/23 01:52:29;;;;;;;1.98;0.82;;;15.00;99.90;;;;;;5096825;28;20024;-72
2023/09/23 01:54:55;;;;;;;2.13;0.95;;;15.00;99.90;;;;;;5096408;28;20397;-72
2023/09/23 01:57:21;;;;;;;3.15;0.70;;;15.20;99.90;;;;;;5089334;28;20028;-72
2023/09/23 01:59:46;;;;;;;2.75;1.00;;;15.00;99.90;;;;;;5091233;28;20043;-72
2023/09/23 02:02:12;;;;;;;3.47;0.90;;;15.10;99.90;;;;;;5093987;28;20424;-72
2023/09/23 02:04:40;;;;;;;2.92;0.90;;;15.10;99.90;;;;;;5092010;28;20483;-72
2023/09/23 02:07:10;;;;;;;5.05;1.00;;;14.90;99.90;;;;;;5091570;28;20027;-72
2023/09/23 02:09:39;;;;;;;2.50;0.60;;;15.10;99.90;;;;;;5097985;28;20028;-72
2023/09/23 02:12:05;;;;;;;5.03;0.73;;;15.10;99.90;;;;;;5093174;28;20115;-72
2023/09/23 02:14:31;;;;;;;2.80;0.77;;;15.20;99.90;;;;;;5089954;28;20115;-72
2023/09/23 02:16:57;;;;;;;4.43;1.38;;;15.10;99.90;;;;;;5091076;28;20032;-72
2023/09/23 02:19:27;;;;;;;0.77;0.60;;;15.00;99.90;;;;;;5094542;28;20043;-72
2023/09/23 02:21:53;;;;;;;1.65;0.75;;;15.10;99.90;;;;;;5092874;28;20035;-72
2023/09/23 02:24:19;;;;;;;3.15;0.90;;;15.20;99.90;;;;;;5087920;28;20036;-72
2023/09/23 02:26:48;;;;;;;1.63;0.55;;;15.20;99.90;;;;;;5089569;28;20077;-72
2023/09/23 02:29:15;;;;;;;2.78;0.95;;;15.00;99.90;;;;;;5088863;28;20036;-72
2023/09/23 02:31:49;;;;;;;2.33;0.70;;;14.90;99.90;;;;;;5093732;28;20028;-72
2023/09/23 02:34:20;;;;;;;3.05;0.82;;;14.90;99.90;;;;;;5089810;28;20081;-72
2023/09/23 02:36:45;;;;;;;5.28;0.80;;;14.90;99.90;;;;;;5095701;28;20053;-72
2023/09/23 02:39:16;;;;;;;1.95;0.82;;;15.00;99.90;;;;;;5090447;28;20056;-72
2023/09/23 02:41:45;;;;;;;1.60;0.40;;;15.00;99.90;;;;;;5089917;28;20035;-72
2023/09/23 02:44:22;;;;;;;2.63;0.80;;;15.00;99.90;;;;;;5096935;28;20032;-72
2023/09/23 02:46:54;;;;;;;4.38;0.73;;;14.80;99.90;;;;;;5090963;28;20461;-72
2023/09/23 02:49:20;;;;;;;2.15;0.55;;;14.70;99.90;;;;;;5100892;28;20092;-72
2023/09/23 02:51:48;;;;;;;1.75;0.60;;;14.60;99.90;;;;;;5097566;28;20028;-72
2023/09/23 02:54:17;;;;;;;4.53;0.75;;;14.70;99.90;;;;;;5092808;28;20867;-72
2023/09/23 02:56:46;;;;;;;2.33;0.93;;;14.70;99.90;;;;;;5088478;28;20089;-72
2023/09/23 02:59:21;;;;;;;1.05;0.47;;;14.80;99.90;;;;;;5096983;28;20100;-72
2023/09/23 03:01:51;;;;;;;2.20;0.85;;;14.90;99.90;;;;;;5095641;28;20035;-72
2023/09/23 03:04:23;;;;;;;2.38;0.70;;;14.90;99.90;;;;;;5084676;28;20558;-72
2023/09/23 03:06:53;;;;;;;2.55;0.70;;;14.80;99.90;;;;;;5090821;28;20114;-72
2023/09/23 03:09:24;;;;;;;2.03;0.55;;;14.90;99.90;;;;;;5088025;28;20100;-72
2023/09/23 03:11:55;;;;;;;1.83;0.70;;;15.10;99.90;;;;;;5090018;28;20027;-73
2023/09/23 03:14:30;;;;;;;2.38;0.40;;;15.10;99.90;;;;;;5083545;28;20966;-72
2023/09/23 03:16:57;;;;;;;1.35;0.60;;;15.10;99.90;;;;;;5085592;28;20042;-73
2023/09/23 03:19:25;;;;;;;2.80;0.40;;;15.20;99.90;;;;;;5085421;28;20035;-72
2023/09/23 03:21:54;;;;;;;1.75;0.70;;;15.10;99.90;;;;;;5082555;28;20111;-73
2023/09/23 03:24:20;;;;;;;2.17;0.98;;;15.00;99.90;;;;;;5079953;28;20572;-73
2023/09/23 03:26:46;;;;;;;1.25;0.63;;;15.10;99.90;;;;;;5086379;28;20082;-73
2023/09/23 03:29:13;;;;;;;1.92;0.60;;;15.20;99.90;;;;;;5084340;28;20035;-72
2023/09/23 03:31:39;;;;;;;2.92;0.40;;;15.10;99.90;;;;;;5084139;28;20035;-72
2023/09/23 03:34:05;;;;;;;2.80;0.30;;;15.20;99.90;;;;;;5091758;28;20028;-72
2023/09/23 03:36:31;;;;;;;0.93;0.28;;;15.10;99.90;;;;;;5084895;28;20658;-72
2023/09/23 03:39:00;;;;;;;0.43;0.30;;;15.10;99.90;;;;;;5086276;28;20028;-72
2023/09/23 03:41:27;;;;;;;2.88;0.43;;;15.10;99.90;;;;;;5087002;28;20082;-72
2023/09/23 03:43:53;;;;;;;1.17;0.50;;;15.10;99.90;;;;;;5090800;28;20029;-72
2023/09/23 03:46:19;;;;;;;0.45;0.22;;;15.10;99.90;;;;;;5088230;28;20489;-72
2023/09/23 03:48:46;;;;;;;1.63;0.32;;;15.10;99.90;;;;;;5089432;28;20366;-72
2023/09/23 03:51:14;;;;;;;1.55;0.30;;;15.10;99.90;;;;;;5086169;28;20111;-72
2023/09/23 03:53:41;;;;;;;0.55;0.30;;;15.10;99.90;;;;;;5087672;28;20075;-73
2023/09/23 03:56:07;;;;;;;1.48;0.50;;;15.00;99.90;;;;;;5088642;28;20039;-72
2023/09/23 03:58:33;;;;;;;1.40;0.20;;;15.00;99.90;;;;;;5090247;28;24076;-72
2023/09/23 04:01:06;;;;;;;0.50;0.20;;;14.90;99.90;;;;;;5092908;28;20095;-72
2023/09/23 04:03:34;;;;;;;0.43;0.40;;;15.10;99.90;;;;;;5091395;28;20054;-73
2023/09/23 04:06:00;;;;;;;1.65;0.40;;;15.00;99.90;;;;;;5085147;28;20719;-73
2023/09/23 04:08:26;;;;;;;1.38;0.43;;;14.90;99.90;;;;;;5084453;28;20164;-73
2023/09/23 04:10:52;;;;;;;1.00;0.30;;;14.90;99.90;;;;;;5086533;28;20039;-72
2023/09/23 04:13:18;;;;;;;2.83;0.40;;;14.80;99.90;;;;;;5085818;28;20028;-72
2023/09/23 04:15:44;;;;;;;0.88;0.40;;;14.90;99.90;;;;;;5086433;28;20031;-73
2023/09/23 04:18:10;;;;;;;1.45;0.65;;;14.90;99.90;;;;;;5085827;28;20028;-72
2023/09/23 04:20:36;;;;;;;1.92;0.73;;;14.60;99.90;;;;;;5087188;28;20035;-72
2023/09/23 04:23:03;;;;;;;2.15;0.63;;;14.40;99.90;;;;;;5084032;28;20035;-72
2023/09/23 04:25:29;;;;;;;0.90;0.30;;;14.40;99.90;;;;;;5087460;28;20031;-72
2023/09/23 04:27:55;;;;;;;1.92;0.60;;;14.30;99.90;;;;;;5086160;28;20123;-73
2023/09/23 04:30:21;;;;;;;6.50;0.75;;;14.40;99.90;;;;;;5086900;28;20120;-73
2023/09/23 04:32:47;;;;;;;0.32;0.10;;;14.50;99.90;;;;;;5084418;28;20047;-73
2023/09/23 04:35:13;;;;;;;0.50;0.30;;;14.50;99.90;;;;;;5088092;28;20028;-72
2023/09/23 04:37:39;;;;;;;1.83;0.82;;;14.50;99.90;;;;;;5083363;28;20024;-72
2023/09/23 04:40:10;;;;;;;1.55;0.40;;;14.40;99.90;;;;;;5086392;28;20504;-72
2023/09/23 04:42:41;;;;;;;2.67;0.57;;;14.50;99.90;;;;;;5084959;28;20451;-72
2023/09/23 04:45:08;;;;;;;2.78;0.70;;;14.40;99.90;;;;;;5088030;28;20142;-73
2023/09/23 04:47:35;;;;;;;1.60;0.82;;;14.20;99.90;;;;;;5097935;28;20414;-72
2023/09/23 04:50:04;;;;;;;1.48;0.50;;;14.20;99.90;;;;;;5085443;28;20024;-73
2023/09/23 04:52:33;;;;;;;1.42;0.60;;;14.00;99.90;;;;;;5086223;28;20052;-72
2023/09/23 04:54:58;;;;;;;1.35;0.40;;;13.90;99.90;;;;;;5089838;28;20044;-72
2023/09/23 04:57:24;;;;;;;3.08;0.60;;;14.00;99.90;;;;;;5084766;28;20050;-73
2023/09/23 04:59:52;;;;;;;1.20;0.30;;;14.00;99.90;;;;;;5096124;27;20036;-73
2023/09/23 05:02:18;;;;;;;0.77;0.32;;;13.90;99.90;;;;;;5087921;28;20032;-72
2023/09/23 05:04:48;;;;;;;3.42;0.40;;;13.90;99.90;;;;;;5087221;28;20055;-72
2023/09/23 05:07:14;;;;;;;2.53;0.75;;;13.80;99.90;;;;;;5092134;28;20077;-73
2023/09/23 05:09:41;;;;;;;3.25;0.50;;;13.70;99.90;;;;;;5085119;28;20028;-72
2023/09/23 05:12:10;;;;;;;1.23;0.52;;;13.80;99.90;;;;;;5089147;28;20802;-72
2023/09/23 05:14:36;;;;;;;2.58;0.77;;;14.00;99.90;;;;;;5084645;28;20126;-72
2023/09/23 05:17:05;;;;;;;1.70;0.70;;;14.00;99.90;;;;;;5089871;28;20106;-72
2023/09/23 05:19:34;;;;;;;4.07;0.60;;;14.00;99.90;;;;;;5085039;28;20115;-72
2023/09/23 05:22:00;;;;;;;1.67;0.77;;;14.10;99.90;;;;;;5084759;28;22027;-73
2023/09/23 05:24:26;;;;;;;4.03;0.57;;;14.00;99.90;;;;;;5086442;28;20889;-72
2023/09/23 05:26:56;;;;;;;2.05;0.52;;;14.00;99.90;;;;;;5089291;28;20024;-72
2023/09/23 05:29:25;;;;;;;1.67;0.70;;;14.00;99.90;;;;;;5086931;28;20422;-72
2023/09/23 05:31:50;;;;;;;1.17;0.60;;;14.10;99.90;;;;;;5086950;28;20123;-72
2023/09/23 05:34:18;;;;;;;1.52;0.70;;;14.10;99.90;;;;;;5086823;28;20107;-72
2023/09/23 05:36:45;;;;;;;2.03;0.80;;;14.10;99.90;;;;;;5092452;28;20461;-72
2023/09/23 05:39:18;;;;;;;1.65;0.75;;;14.10;99.90;;;;;;5089507;28;20031;-72
2023/09/23 05:41:49;;;;;;;2.35;0.70;;;14.10;99.90;;;;;;5090904;28;20033;-72
2023/09/23 05:44:16;;;;;;;1.23;0.38;;;14.20;99.90;;;;;;5092459;28;20036;-73
2023/09/23 05:46:42;;;;;;;2.78;0.77;;;14.10;99.90;;;;;;5082446;28;20064;-72
2023/09/23 05:49:09;;;;;;;1.60;0.65;;;14.20;99.90;;;;;;5095151;28;20103;-72
2023/09/23 05:51:35;;;;;;;2.53;0.60;;;14.40;99.90;;;;;;5085010;28;20046;-72
2023/09/23 05:54:02;;;;;;;4.60;0.63;;;14.50;99.90;;;;;;5083878;28;20024;-73
2023/09/23 05:56:27;;;;;;;1.30;0.50;;;14.50;99.90;;;;;;5085303;28;20359;-72
2023/09/23 05:58:53;;;;;;;1.58;0.70;;;14.50;99.90;;;;;;5088319;28;20030;-72
2023/09/23 06:01:19;;;;;;;1.48;0.47;;;14.70;99.90;;;;;;5088769;28;20032;-72
2023/09/23 06:03:45;;;;;;;2.22;0.52;;;14.70;99.90;;;;;;5091654;28;20039;-73
2023/09/23 06:06:11;;;;;;;1.02;0.40;;;14.80;99.90;;;;;;5098036;28;20028;-72
2023/09/23 06:08:37;;;;;;;1.00;0.43;;;14.80;99.90;;;;;;5088963;28;20113;-72
2023/09/23 06:11:04;;;;;;;0.77;0.40;;;14.80;99.90;;;;;;5087663;28;20024;-72
2023/09/23 06:13:34;;;;;;;0.65;0.30;;;14.90;99.90;;;;;;5086137;28;20051;-73
2023/09/23 06:16:04;;;;;;;2.70;0.28;;;15.00;99.90;;;;;;5083889;28;20362;-73
2023/09/23 06:18:30;;;;;;;0.88;0.47;;;15.00;99.90;;;;;;5086503;28;20039;-72
2023/09/23 06:21:00;;;;;;;2.67;0.32;;;15.00;99.90;;;;;;5085534;28;20040;-72
2023/09/23 06:23:26;;;;;;;0.88;0.20;;;15.10;99.90;;;;;;5083025;28;20031;-72
2023/09/23 06:26:02;;;;;;;1.00;0.25;;;15.10;99.90;;;;;;5088322;27;20059;-73
2023/09/23 06:28:29;;;;;;;1.42;0.35;;;15.10;99.90;;;;;;5088615;28;20069;-72
2023/09/23 06:30:55;;;;;;;1.70;1.00;;;15.10;99.90;;;;;;5093328;28;20527;-72
2023/09/23 06:33:21;;;;;;;1.48;0.60;;;15.10;99.90;;;;;;5089616;28;20055;-72
2023/09/23 06:35:48;;;;;;;1.65;0.38;;;15.10;99.90;;;;;;5087065;28;20040;-72
2023/09/23 06:38:14;;;;;;;1.15;0.35;;;15.10;99.90;;;;;;5088336;28;20031;-72
2023/09/23 06:40:39;;;;;;;1.55;0.40;;;15.10;99.90;;;;;;5087856;28;20039;-72
2023/09/23 06:43:05;;;;;;;2.03;0.50;;;15.10;99.90;;;;;;5092202;28;20032;-72
2023/09/23 06:45:31;;;;;;;1.73;0.55;;;15.10;99.90;;;;;;5087774;28;20040;-72
2023/09/23 06:47:57;;;;;;;0.93;0.30;;;15.10;99.90;;;;;;5084143;28;20112;-72
2023/09/23 06:50:23;;;;;;;0.30;0.10;;;15.20;99.90;;;;;;5083351;28;20110;-72
2023/09/23 06:52:49;;;;;;;1.23;0.30;;;15.20;99.90;;;;;;5085563;28;20462;-73
2023/09/23 06:55:15;;;;;;;2.97;0.38;;;15.20;99.90;;;;;;5081771;28;20508;-73
2023/09/23 06:57:40;;;;;;;0.73;0.30;;;15.20;99.90;;;;;;5088176;28;20036;-74
2023/09/23 07:00:07;;;;;;;1.73;0.30;;;15.20;99.90;;;;;;5085341;28;20461;-73
2023/09/23 07:02:34;;;;;;;4.55;0.70;;;15.30;99.90;;;;;;5089381;28;20070;-73
2023/09/23 07:05:00;;;;;;;1.83;0.77;;;15.30;99.90;;;;;;5087476;28;20089;-73
2023/09/23 07:07:26;;;;;;;1.02;0.40;;;15.20;99.90;;;;;;5081193;28;20031;-73
2023/09/23 07:09:52;;;;;;;0.77;0.40;;;15.20;99.90;;;;;;5086732;28;20044;-72
2023/09/23 07:12:17;;;;;;;0.30;0.30;;;15.30;99.90;;;;;;5085419;28;20024;-73
2023/09/23 07:14:43;;;;;;;0.73;0.20;;;15.30;99.90;;;;;;5089249;28;20074;-73
2023/09/23 07:17:09;;;;;;;4.63;0.45;;;15.40;99.90;;;;;;5083459;28;20110;-73
2023/09/23 07:19:34;;;;;;;1.73;0.38;;;15.50;99.90;;;;;;5084035;28;20094;-73
2023/09/23 07:22:01;;;;;;;3.20;0.90;;;15.60;99.90;;;;;;5081055;28;20035;-72
2023/09/23 07:24:27;;;;;;;1.30;0.32;;;15.70;99.90;;;;;;5082665;28;20024;-72
2023/09/23 07:26:58;;;;;;;0.90;0.20;;;15.70;99.90;;;;;;5095150;28;20035;-72
2023/09/23 07:29:24;;;;;;;2.13;0.32;;;15.80;99.90;;;;;;5093458;28;20024;-73
2023/09/23 07:31:50;;;;;;;1.45;0.43;;;15.80;99.90;;;;;;5087997;28;20066;-74
2023/09/23 07:34:16;;;;;;;3.95;1.67;;;15.90;99.90;;;;;;5093497;28;20102;-73
2023/09/23 07:36:43;;;;;;;3.45;0.88;;;16.00;99.90;;;;;;5096170;28;20166;-72
2023/09/23 07:39:10;;;;;;;3.10;0.52;;;16.00;99.90;;;;;;5092495;28;20900;-72
2023/09/23 07:41:38;;;;;;;1.20;0.50;;;16.00;99.90;;;;;;5091455;28;20214;-73
2023/09/23 07:44:04;;;;;;;2.53;0.60;;;15.90;99.90;;;;;;5089370;28;20076;-72
2023/09/23 07:46:30;;;;;;;5.05;0.47;;;16.10;99.90;;;;;;5092578;28;20186;-70
2023/09/23 07:48:56;;;;;;;6.72;0.80;;;16.20;99.90;;;;;;5091439;28;20103;-70
2023/09/23 07:51:22;;;;;;;1.00;0.40;;;16.10;99.90;;;;;;5093276;28;20055;-72
2023/09/23 07:53:47;;;;;;;1.35;0.38;;;16.10;99.90;;;;;;5092356;28;20025;-73
2023/09/23 07:56:13;;;;;;;1.75;0.40;;;16.00;99.90;;;;;;5095148;28;20547;-73
2023/09/23 07:58:39;;;;;;;0.73;0.25;;;16.00;99.90;;;;;;5085908;28;20028;-73
2023/09/23 08:01:04;;;;;;;0.30;0.10;;;16.10;99.90;;;;;;5094575;28;20066;-73
2023/09/23 08:03:31;;;;;;;0.65;0.28;;;16.20;99.90;;;;;;5107567;28;20102;-73
2023/09/23 08:05:56;;;;;;;1.58;0.50;;;16.20;99.90;;;;;;5107844;28;20687;-73
2023/09/23 08:08:22;;;;;;;3.13;1.00;;;16.20;99.90;;;;;;5107871;28;20042;-73
2023/09/23 08:10:49;;;;;;;1.63;0.50;;;16.20;99.90;;;;;;5108046;28;20194;-72
2023/09/23 08:13:17;;;;;;;2.13;0.68;;;16.20;99.90;;;;;;5107471;28;20047;-73
2023/09/23 08:15:42;;;;;;;4.13;0.90;;;16.30;99.90;;;;;;5103736;28;20483;-73
2023/09/23 08:18:08;;;;;;;2.25;0.55;;;16.30;99.90;;;;;;5105800;28;20039;-72
2023/09/23 08:20:34;;;;;;;0.75;0.30;;;16.30;99.90;;;;;;5106455;28;20043;-72
2023/09/23 08:23:00;;;;;;;1.70;0.60;;;16.40;99.90;;;;;;5106695;28;20027;-72
2023/09/23 08:25:26;;;;;;;0.85;0.22;;;16.50;99.90;;;;;;5107858;28;20027;-72
2023/09/23 08:27:53;;;;;;;1.27;0.40;;;16.50;99.90;;;;;;5089252;28;20728;-72
2023/09/23 08:30:19;;;;;;;5.15;0.55;;;16.70;99.90;;;;;;5091608;28;20473;-72
2023/09/23 08:32:45;;;;;;;2.13;0.25;;;16.70;99.90;;;;;;5091457;28;20111;-72
2023/09/23 08:35:11;;;;;;;0.90;0.30;;;16.80;99.90;;;;;;5091528;28;20030;-73
2023/09/23 08:37:37;;;;;;;1.10;0.40;;;16.80;99.90;;;;;;5091696;28;20024;-72
2023/09/23 08:40:10;;;;;;;2.85;0.75;;;16.80;99.90;;;;;;5091463;28;20066;-72
2023/09/23 08:42:40;;;;;;;0.80;0.40;;;16.70;99.90;;;;;;5107410;28;20030;-72
2023/09/23 08:45:08;;;;;;;1.73;0.70;;;16.70;99.90;;;;;;5111682;28;20027;-72
2023/09/23 08:47:36;;;;;;;1.35;0.47;;;16.70;99.90;;;;;;5111404;28;20062;-72
2023/09/23 08:50:06;;;;;;;1.27;0.40;;;16.90;99.90;;;;;;5110649;28;20020;-72
2023/09/23 08:52:32;;;;;;;1.10;0.50;;;16.90;99.90;;;;;;5111704;28;20354;-72
2023/09/23 08:54:59;;;;;;;1.25;0.50;;;16.80;99.90;;;;;;5102556;28;20059;-72
2023/09/23 08:57:25;;;;;;;3.50;0.90;;;17.00;99.90;;;;;;5091165;28;20036;-73
2023/09/23 08:59:51;;;;;;;3.70;0.65;;;17.10;99.90;;;;;;5108581;28;20027;-72
2023/09/23 09:02:21;;;;;;;3.00;0.57;;;17.10;99.90;;;;;;5111711;28;20362;-72
2023/09/23 09:04:47;;;;;;;2.28;0.60;;;17.00;99.90;;;;;;5111780;28;20477;-72
2023/09/23 09:07:13;;;;;;;1.38;0.40;;;17.20;99.90;;;;;;5090492;28;20062;-73
2023/09/23 09:09:39;;;;;;;0.60;0.35;;;17.40;99.90;;;;;;5090624;28;20035;-72
2023/09/23 09:12:05;;;;;;;1.00;0.45;;;17.30;99.90;;;;;;5090639;28;20095;-72
2023/09/23 09:14:33;;;;;;;3.35;0.73;;;18.50;99.90;;;;;;5090643;28;20039;-72
2023/09/23 09:16:59;;;;;;;0.52;0.20;;;20.20;99.90;;;;;;5093240;28;20035;-72
2023/09/23 09:19:26;;;;;;;0.68;0.30;;;19.70;99.90;;;;;;5105101;28;20036;-73
2023/09/23 09:21:51;;;;;;;1.85;0.30;;;19.10;99.90;;;;;;5111117;27;20031;-72
2023/09/23 09:24:17;;;;;;;1.58;0.22;;;18.90;99.90;;;;;;5111321;28;20031;-72
2023/09/23 09:26:47;;;;;;;1.52;0.63;;;18.70;99.90;;;;;;5110906;28;20089;-72
2023/09/23 09:29:13;;;;;;;0.90;0.30;;;18.90;99.90;;;;;;5110932;28;20411;-72
2023/09/23 09:31:42;;;;;;;2.90;0.47;;;18.80;99.90;;;;;;5110960;28;20494;-72
2023/09/23 09:34:11;;;;;;;1.70;0.50;;;18.60;99.90;;;;;;5110732;28;20043;-72
2023/09/23 09:36:40;;;;;;;0.47;0.25;;;18.60;99.90;;;;;;5110834;28;20049;-72
2023/09/23 09:39:10;;;;;;;1.02;0.50;;;18.90;99.90;;;;;;5109704;28;20478;-72
2023/09/23 09:41:50;;;;;;;1.60;0.38;;;18.90;99.90;;;;;;5109415;28;20032;-72
2023/09/23 09:44:16;;;;;;;1.92;0.35;;;19.10;99.90;;;;;;5110253;28;20373;-72
2023/09/23 09:46:43;;;;;;;1.83;0.20;;;19.20;99.90;;;;;;5110714;28;20026;-72
2023/09/23 09:49:09;;;;;;;2.63;0.32;;;19.10;99.90;;;;;;5095273;28;20046;-72
2023/09/23 09:51:35;;;;;;;0.40;0.15;;;19.10;99.90;;;;;;5110415;28;20110;-72
2023/09/23 09:54:04;;;;;;;1.27;0.40;;;19.20;99.90;;;;;;5108558;28;20651;-72
2023/09/23 09:56:32;;;;;;;1.40;0.30;;;19.00;99.90;;;;;;5102997;28;20081;-72
2023/09/23 09:59:00;;;;;;;1.67;0.60;;;19.00;99.90;;;;;;5109897;28;20051;-72
2023/09/23 10:01:28;;;;;;;0.40;0.35;;;19.20;99.90;;;;;;5110421;27;20035;-72
2023/09/23 10:03:54;;;;;;;4.38;0.63;;;19.20;99.90;;;;;;5110324;28;20038;-72
2023/09/23 10:06:26;;;;;;;1.92;0.40;;;19.20;99.90;;;;;;5108625;28;20032;-72
2023/09/23 10:08:53;;;;;;;2.00;0.40;;;19.20;99.90;;;;;;5109872;28;20124;-72
2023/09/23 10:11:34;;;;;;;5.55;1.10;;;19.10;99.90;;;;;;5110001;28;20024;-72
2023/09/23 10:14:17;;;;;;;2.65;0.40;;;19.30;99.90;;;;;;5089483;28;20039;-72
2023/09/23 10:16:52;;;;;;;1.15;0.47;;;19.30;99.90;;;;;;5089544;28;20020;-72
2023/09/23 10:19:29;;;;;;;4.47;0.50;;;19.40;99.90;;;;;;5089363;28;20354;-72
2023/09/23 10:22:13;;;;;;;1.17;0.32;;;19.50;99.90;;;;;;5089788;28;20169;-72
2023/09/23 10:24:42;;;;;;;2.25;0.35;;;19.40;99.90;;;;;;5105492;28;20024;-72
2023/09/23 10:27:13;;;;;;;1.05;0.40;;;19.50;99.90;;;;;;5110134;28;20161;-72
2023/09/23 10:29:49;;;;;;;2.63;0.75;;;19.70;99.90;;;;;;5109536;28;20143;-72
2023/09/23 10:32:16;;;;;;;3.20;0.30;;;19.90;99.90;;;;;;5098521;28;20032;-72
2023/09/23 10:34:47;;;;;;;0.65;0.28;;;19.90;99.90;;;;;;5088966;28;20056;-72
2023/09/23 10:37:15;;;;;;;1.15;0.35;;;20.00;99.90;;;;;;5089092;28;20675;-72
2023/09/23 10:39:44;;;;;;;0.80;0.38;;;20.00;99.90;;;;;;5089340;28;20024;-72
2023/09/23 10:42:14;;;;;;;2.45;0.43;;;20.00;99.90;;;;;;5108921;28;20114;-72
2023/09/23 10:44:39;;;;;;;0.68;0.20;;;20.00;99.90;;;;;;5109605;28;20395;-72
2023/09/23 10:47:05;;;;;;;0.73;0.30;;;20.10;99.90;;;;;;5108639;28;20536;-72
2023/09/23 10:49:31;;;;;;;1.13;0.43;;;20.00;99.90;;;;;;5109112;28;20019;-72
2023/09/23 10:51:57;;;;;;;5.32;0.52;;;20.10;99.90;;;;;;5109443;28;20027;-72
2023/09/23 10:54:24;;;;;;;0.65;0.32;;;20.30;99.90;;;;;;5104807;28;20039;-72
2023/09/23 10:56:51;;;;;;;0.82;0.22;;;20.50;99.90;;;;;;5088976;28;20032;-72
2023/09/23 10:59:17;;;;;;;1.73;0.57;;;20.60;99.90;;;;;;5105967;28;20024;-72
2023/09/23 11:01:45;;;;;;;0.57;0.30;;;20.60;99.90;;;;;;5088741;28;20056;-72
2023/09/23 11:04:11;;;;;;;4.30;0.60;;;20.70;99.40;;;;;;5088788;28;20472;-72
2023/09/23 11:06:37;;;;;;;1.02;0.43;;;20.70;99.70;;;;;;5089180;28;20024;-72
2023/09/23 11:09:05;;;;;;;1.45;0.60;;;20.60;99.10;;;;;;5088401;28;20035;-72
2023/09/23 11:11:37;;;;;;;1.95;0.50;;;20.70;99.60;;;;;;5088987;28;20027;-72
2023/09/23 11:14:12;;;;;;;1.67;0.40;;;20.90;99.90;;;;;;5091633;28;20035;-72
2023/09/23 11:16:42;;;;;;;1.00;0.30;;;20.90;98.80;;;;;;5109297;28;20035;-72
2023/09/23 11:19:08;;;;;;;0.80;0.38;;;21.00;99.00;;;;;;5109049;28;20108;-72
2023/09/23 11:21:46;;;;;;;0.75;0.30;;;21.10;99.20;;;;;;5108748;28;20480;-72
2023/09/23 11:24:13;;;;;;;2.47;0.63;;;21.10;98.80;;;;;;5108956;28;20030;-72
2023/09/23 11:26:40;;;;;;;1.17;0.30;;;21.30;98.70;;;;;;5108841;28;20061;-72
2023/09/23 11:29:06;;;;;;;1.77;0.50;;;21.30;97.90;;;;;;5108583;28;20610;-72
2023/09/23 11:31:32;;;;;;;0.43;0.30;;;21.50;98.00;;;;;;5107825;28;20038;-72
2023/09/23 11:33:58;;;;;;;2.10;0.43;;;21.50;98.00;;;;;;5107634;28;20035;-72
2023/09/23 11:36:23;;;;;;;1.95;0.50;;;21.60;97.70;;;;;;5109124;28;20471;-72
2023/09/23 11:38:49;;;;;;;1.05;0.40;;;21.60;98.90;;;;;;5108927;28;20030;-72
2023/09/23 11:41:18;;;;;;;0.95;0.20;;;21.60;98.00;;;;;;5108962;28;20035;-72
2023/09/23 11:43:44;;;;;;;1.25;0.63;;;21.70;97.90;;;;;;5107572;28;20028;-72
2023/09/23 11:46:12;;;;;;;1.02;0.35;;;21.80;98.40;;;;;;5109012;28;20447;-72
2023/09/23 11:48:37;;;;;;;1.20;0.40;;;21.80;97.50;;;;;;5099524;28;20016;-72
2023/09/23 11:51:03;;;;;;;1.42;0.47;;;21.80;97.20;;;;;;5089143;28;20028;-72
2023/09/23 11:53:29;;;;;;;1.65;0.40;;;21.90;97.70;;;;;;5088464;28;20535;-72
2023/09/23 11:55:54;;;;;;;0.93;0.30;;;21.70;97.20;;;;;;5088337;28;20042;-72
2023/09/23 11:58:20;;;;;;;2.70;0.47;;;21.70;97.30;;;;;;5088002;28;20024;-72
2023/09/23 12:00:47;;;;;;;1.48;0.40;;;21.80;97.70;;;;;;5088535;28;20028;-72
2023/09/23 12:03:14;;;;;;;0.98;0.40;;;22.00;97.50;;;;;;5090880;28;20024;-72
2023/09/23 12:05:40;;;;;;;0.60;0.30;;;22.10;97.80;;;;;;5099618;28;20114;-72
2023/09/23 12:08:07;;;;;;;4.13;0.50;;;22.10;96.90;;;;;;5107725;28;20076;-72
2023/09/23 12:10:32;;;;;;;1.88;0.40;;;22.10;97.30;;;;;;5096566;28;20043;-72
2023/09/23 12:13:02;;;;;;;1.20;0.32;;;22.20;96.90;;;;;;5092080;28;20084;-72
2023/09/23 12:15:29;;;;;;;1.33;0.38;;;22.20;96.60;;;;;;5092326;28;20048;-72
2023/09/23 12:17:55;;;;;;;2.80;0.70;;;22.40;97.40;;;;;;5091602;28;20020;-72
2023/09/23 12:20:22;;;;;;;1.63;0.28;;;22.50;96.30;;;;;;5091020;28;20086;-72
2023/09/23 12:22:48;;;;;;;1.05;0.60;;;22.40;96.10;;;;;;5100404;28;20074;-72
2023/09/23 12:25:15;;;;;;;1.15;0.40;;;22.60;96.60;;;;;;5104997;28;20399;-72
2023/09/23 12:27:40;;;;;;;1.50;0.73;;;22.50;96.30;;;;;;5091480;28;20028;-72
2023/09/23 12:30:07;;;;;;;0.95;0.40;;;22.50;95.80;;;;;;5091522;28;20055;-72
2023/09/23 12:32:33;;;;;;;1.38;0.50;;;22.60;97.00;;;;;;5091261;28;20096;-72
2023/09/23 12:34:59;;;;;;;2.42;0.60;;;22.40;96.30;;;;;;5111861;27;20034;-72
2023/09/23 12:37:27;;;;;;;0.77;0.25;;;22.40;95.80;;;;;;5111574;28;20023;-72
2023/09/23 12:39:53;;;;;;;1.02;0.40;;;22.40;96.10;;;;;;5111552;28;20024;-72
2023/09/23 12:42:19;;;;;;;1.65;0.52;;;22.60;97.00;;;;;;5104868;28;20107;-72
2023/09/23 12:44:44;;;;;;;1.65;0.40;;;22.70;95.60;;;;;;5091424;28;20188;-72
2023/09/23 12:47:10;;;;;;;0.90;0.40;;;22.60;95.30;;;;;;5091191;28;20043;-72
2023/09/23 12:49:37;;;;;;;2.45;0.40;;;22.60;95.50;;;;;;5091518;28;20024;-72